sensor_id;sensor_type;location;lat;lon;timestamp;temperature;humidity
13806;DHT22;6974;53.606;9.872;2022-12-07T00:00:35;5.30;99.90
13806;DHT22;6974;53.606;9.872;2022-12-07T00:03:01;5.30;99.90
13806;DHT22;6974;53.606;9.872;2022-12-07T00:05:29;5.30;99.90
13806;DHT22;6974;53.606;9.872;2022-12-07T00:07:57;5.40;99.90
13806;DHT22;6974;53.606;9.872;2022-12-07T00:10:25;5.30;99.90
13806;DHT22;6974;53.606;9.872;2022-12-07T00:12:52;5.40;99.90
13806;DHT22;6974;53.606;9.872;2022-12-07T00:15:19;5.40;99.90
13806;DHT22;6974;53.606;9.872;2022-12-07T00:17:46;5.40;99.90
13806;DHT22;6974;53.606;9.872;2022-12-07T00:20:13;5.30;99.90
13806;DHT22;6974;53.606;9.872;2022-12-07T00:22:39;5.40;99.90
13806;DHT22;6974;53.606;9.872;2022-12-07T00:25:07;5.30;99.90
13806;DHT22;6974;53.606;9.872;2022-12-07T00:27:35;5.30;99.90
13806;DHT22;6974;53.606;9.872;2022-12-07T00:30:02;5.40;99.90
13806;DHT22;6974;53.606;9.872;2022-12-07T00:32:29;5.30;99.90
13806;DHT22;6974;53.606;9.872;2022-12-07T00:34:56;5.30;99.90
13806;DHT22;6974;53.606;9.872;2022-12-07T00:37:23;5.30;99.90
13806;DHT22;6974;53.606;9.872;2022-12-07T00:39:50;5.30;99.90
13806;DHT22;6974;53.606;9.872;2022-12-07T00:42:17;5.30;99.90
13806;DHT22;6974;53.606;9.872;2022-12-07T00:44:45;5.30;99.90
13806;DHT22;6974;53.606;9.872;2022-12-07T00:47:12;5.30;99.90
13806;DHT22;6974;53.606;9.872;2022-12-07T00:49:39;5.30;99.90
13806;DHT22;6974;53.606;9.872;2022-12-07T00:52:06;5.40;99.90
13806;DHT22;6974;53.606;9.872;2022-12-07T00:54:32;5.40;99.90
13806;DHT22;6974;53.606;9.872;2022-12-07T00:56:59;5.40;99.90
13806;DHT22;6974;53.606;9.872;2022-12-07T00:59:26;5.30;99.90
13806;DHT22;6974;53.606;9.872;2022-12-07T01:01:54;5.40;99.90
13806;DHT22;6974;53.606;9.872;2022-12-07T01:04:21;5.40;99.90
13806;DHT22;6974;53.606;9.872;2022-12-07T01:06:48;5.40;99.90
13806;DHT22;6974;53.606;9.872;2022-12-07T01:09:15;5.40;99.90
13806;DHT22;6974;53.606;9.872;2022-12-07T01:11:42;5.40;99.90
13806;DHT22;6974;53.606;9.872;2022-12-07T01:14:09;5.40;99.90
13806;DHT22;6974;53.606;9.872;2022-12-07T01:16:36;5.40;99.90
13806;DHT22;6974;53.606;9.872;2022-12-07T01:19:06;5.40;99.90
13806;DHT22;6974;53.606;9.872;2022-12-07T01:21:34;5.40;99.90
13806;DHT22;6974;53.606;9.872;2022-12-07T01:24:03;5.40;99.90
13806;DHT22;6974;53.606;9.872;2022-12-07T01:26:31;5.40;99.90
13806;DHT22;6974;53.606;9.872;2022-12-07T01:28:58;5.40;99.90
13806;DHT22;6974;53.606;9.872;2022-12-07T01:31:27;5.40;99.90
13806;DHT22;6974;53.606;9.872;2022-12-07T01:33:56;5.40;99.90
13806;DHT22;6974;53.606;9.872;2022-12-07T01:36:26;5.30;99.90
13806;DHT22;6974;53.606;9.872;2022-12-07T01:38:55;5.40;99.90
13806;DHT22;6974;53.606;9.872;2022-12-07T01:41:23;5.30;99.90
13806;DHT22;6974;53.606;9.872;2022-12-07T01:44:17;5.30;99.90
13806;DHT22;6974;53.606;9.872;2022-12-07T01:46:45;5.30;99.90
13806;DHT22;6974;53.606;9.872;2022-12-07T01:49:17;5.30;99.90
13806;DHT22;6974;53.606;9.872;2022-12-07T01:51:47;5.30;99.90
13806;DHT22;6974;53.606;9.872;2022-12-07T01:54:16;5.20;99.90
13806;DHT22;6974;53.606;9.872;2022-12-07T01:56:49;5.20;99.90
13806;DHT22;6974;53.606;9.872;2022-12-07T01:59:18;5.20;99.90
13806;DHT22;6974;53.606;9.872;2022-12-07T02:01:46;5.20;99.90
13806;DHT22;6974;53.606;9.872;2022-12-07T02:04:13;5.20;99.90
13806;DHT22;6974;53.606;9.872;2022-12-07T02:06:41;5.10;99.90
13806;DHT22;6974;53.606;9.872;2022-12-07T02:09:11;5.10;99.90
13806;DHT22;6974;53.606;9.872;2022-12-07T02:11:39;5.10;99.90
13806;DHT22;6974;53.606;9.872;2022-12-07T02:14:07;5.10;99.90
13806;DHT22;6974;53.606;9.872;2022-12-07T02:16:39;5.00;99.90
13806;DHT22;6974;53.606;9.872;2022-12-07T02:19:29;5.00;99.90
13806;DHT22;6974;53.606;9.872;2022-12-07T02:22:12;5.00;99.90
13806;DHT22;6974;53.606;9.872;2022-12-07T02:24:49;5.00;99.90
13806;DHT22;6974;53.606;9.872;2022-12-07T02:27:39;5.00;99.90
13806;DHT22;6974;53.606;9.872;2022-12-07T02:30:13;5.10;99.90
13806;DHT22;6974;53.606;9.872;2022-12-07T02:32:45;5.00;99.90
13806;DHT22;6974;53.606;9.872;2022-12-07T02:35:18;5.00;99.90
13806;DHT22;6974;53.606;9.872;2022-12-07T02:37:55;5.00;99.90
13806;DHT22;6974;53.606;9.872;2022-12-07T02:40:28;5.00;99.90
13806;DHT22;6974;53.606;9.872;2022-12-07T02:43:01;5.00;99.90
13806;DHT22;6974;53.606;9.872;2022-12-07T02:45:31;4.90;99.90
13806;DHT22;6974;53.606;9.872;2022-12-07T02:48:00;4.90;99.90
13806;DHT22;6974;53.606;9.872;2022-12-07T02:50:28;4.90;99.90
13806;DHT22;6974;53.606;9.872;2022-12-07T02:52:55;4.90;99.90
13806;DHT22;6974;53.606;9.872;2022-12-07T02:55:26;4.80;99.90
13806;DHT22;6974;53.606;9.872;2022-12-07T02:58:06;4.90;99.90
13806;DHT22;6974;53.606;9.872;2022-12-07T03:00:39;4.80;99.90
13806;DHT22;6974;53.606;9.872;2022-12-07T03:03:12;4.80;99.90
13806;DHT22;6974;53.606;9.872;2022-12-07T03:05:54;4.80;99.90
13806;DHT22;6974;53.606;9.872;2022-12-07T03:08:30;4.80;99.90
13806;DHT22;6974;53.606;9.872;2022-12-07T03:10:59;4.80;99.90
13806;DHT22;6974;53.606;9.872;2022-12-07T03:13:32;4.70;99.90
13806;DHT22;6974;53.606;9.872;2022-12-07T03:16:06;4.70;99.90
13806;DHT22;6974;53.606;9.872;2022-12-07T03:18:38;4.70;99.90
13806;DHT22;6974;53.606;9.872;2022-12-07T03:21:11;4.70;99.90
13806;DHT22;6974;53.606;9.872;2022-12-07T03:23:40;4.70;99.90
13806;DHT22;6974;53.606;9.872;2022-12-07T03:26:10;4.60;99.90
13806;DHT22;6974;53.606;9.872;2022-12-07T03:28:41;4.60;99.90
13806;DHT22;6974;53.606;9.872;2022-12-07T03:31:13;4.60;99.90
13806;DHT22;6974;53.606;9.872;2022-12-07T03:33:46;4.60;99.90
13806;DHT22;6974;53.606;9.872;2022-12-07T03:36:19;4.50;99.90
13806;DHT22;6974;53.606;9.872;2022-12-07T03:38:50;4.40;99.90
13806;DHT22;6974;53.606;9.872;2022-12-07T03:41:23;4.40;99.90
13806;DHT22;6974;53.606;9.872;2022-12-07T03:43:51;4.30;99.90
13806;DHT22;6974;53.606;9.872;2022-12-07T03:46:27;4.40;99.90
13806;DHT22;6974;53.606;9.872;2022-12-07T03:48:59;4.40;99.90
13806;DHT22;6974;53.606;9.872;2022-12-07T03:51:34;4.40;99.90
13806;DHT22;6974;53.606;9.872;2022-12-07T03:54:09;4.40;99.90
13806;DHT22;6974;53.606;9.872;2022-12-07T03:56:37;4.30;99.90
13806;DHT22;6974;53.606;9.872;2022-12-07T03:59:05;4.40;99.90
13806;DHT22;6974;53.606;9.872;2022-12-07T04:01:34;4.40;99.90
13806;DHT22;6974;53.606;9.872;2022-12-07T04:04:01;4.30;99.90
13806;DHT22;6974;53.606;9.872;2022-12-07T04:06:28;4.30;99.90
13806;DHT22;6974;53.606;9.872;2022-12-07T04:08:55;4.30;99.90
13806;DHT22;6974;53.606;9.872;2022-12-07T04:11:22;4.30;99.90
13806;DHT22;6974;53.606;9.872;2022-12-07T04:13:49;4.20;99.90
13806;DHT22;6974;53.606;9.872;2022-12-07T04:16:35;4.20;99.90
13806;DHT22;6974;53.606;9.872;2022-12-07T04:19:01;4.20;99.90
13806;DHT22;6974;53.606;9.872;2022-12-07T04:21:28;4.20;99.90
13806;DHT22;6974;53.606;9.872;2022-12-07T04:23:55;4.20;99.90
13806;DHT22;6974;53.606;9.872;2022-12-07T04:26:22;4.20;99.90
13806;DHT22;6974;53.606;9.872;2022-12-07T04:28:49;4.20;99.90
13806;DHT22;6974;53.606;9.872;2022-12-07T04:31:16;4.20;99.90
13806;DHT22;6974;53.606;9.872;2022-12-07T04:33:44;4.20;99.90
13806;DHT22;6974;53.606;9.872;2022-12-07T04:36:11;4.30;99.90
13806;DHT22;6974;53.606;9.872;2022-12-07T04:38:38;4.30;99.90
13806;DHT22;6974;53.606;9.872;2022-12-07T04:41:05;4.30;99.90
13806;DHT22;6974;53.606;9.872;2022-12-07T04:43:32;4.30;99.90
13806;DHT22;6974;53.606;9.872;2022-12-07T04:45:59;4.30;99.90
13806;DHT22;6974;53.606;9.872;2022-12-07T04:48:26;4.30;99.90
13806;DHT22;6974;53.606;9.872;2022-12-07T04:50:54;4.30;99.90
13806;DHT22;6974;53.606;9.872;2022-12-07T04:53:21;4.40;99.90
13806;DHT22;6974;53.606;9.872;2022-12-07T04:55:48;4.40;99.90
13806;DHT22;6974;53.606;9.872;2022-12-07T04:58:15;4.40;99.90
13806;DHT22;6974;53.606;9.872;2022-12-07T05:00:42;4.40;99.90
13806;DHT22;6974;53.606;9.872;2022-12-07T05:03:09;4.30;99.90
13806;DHT22;6974;53.606;9.872;2022-12-07T05:05:36;4.30;99.90
13806;DHT22;6974;53.606;9.872;2022-12-07T05:08:04;4.40;99.90
13806;DHT22;6974;53.606;9.872;2022-12-07T05:10:31;4.40;99.90
13806;DHT22;6974;53.606;9.872;2022-12-07T05:12:58;4.30;99.90
13806;DHT22;6974;53.606;9.872;2022-12-07T05:15:25;4.30;99.90
13806;DHT22;6974;53.606;9.872;2022-12-07T05:17:51;4.30;99.90
13806;DHT22;6974;53.606;9.872;2022-12-07T05:20:18;4.30;99.90
13806;DHT22;6974;53.606;9.872;2022-12-07T05:22:45;4.30;99.90
13806;DHT22;6974;53.606;9.872;2022-12-07T05:25:14;4.30;99.90
13806;DHT22;6974;53.606;9.872;2022-12-07T05:27:41;4.40;99.90
13806;DHT22;6974;53.606;9.872;2022-12-07T05:30:08;4.30;99.90
13806;DHT22;6974;53.606;9.872;2022-12-07T05:32:35;4.40;99.90
13806;DHT22;6974;53.606;9.872;2022-12-07T05:35:02;4.30;99.90
13806;DHT22;6974;53.606;9.872;2022-12-07T05:37:29;4.30;99.90
13806;DHT22;6974;53.606;9.872;2022-12-07T05:39:57;4.30;99.90
13806;DHT22;6974;53.606;9.872;2022-12-07T05:42:25;4.30;99.90
13806;DHT22;6974;53.606;9.872;2022-12-07T05:44:52;4.30;99.90
13806;DHT22;6974;53.606;9.872;2022-12-07T05:47:19;4.30;99.90
13806;DHT22;6974;53.606;9.872;2022-12-07T05:49:45;4.30;99.90
13806;DHT22;6974;53.606;9.872;2022-12-07T05:52:12;4.20;99.90
13806;DHT22;6974;53.606;9.872;2022-12-07T05:54:39;4.30;99.90
13806;DHT22;6974;53.606;9.872;2022-12-07T05:57:06;4.20;99.90
13806;DHT22;6974;53.606;9.872;2022-12-07T05:59:34;4.20;99.90
13806;DHT22;6974;53.606;9.872;2022-12-07T06:02:02;4.20;99.90
13806;DHT22;6974;53.606;9.872;2022-12-07T06:04:30;4.20;99.90
13806;DHT22;6974;53.606;9.872;2022-12-07T06:06:58;4.20;99.90
13806;DHT22;6974;53.606;9.872;2022-12-07T06:09:26;4.30;99.90
13806;DHT22;6974;53.606;9.872;2022-12-07T06:11:54;4.30;99.90
13806;DHT22;6974;53.606;9.872;2022-12-07T06:14:40;4.20;99.90
13806;DHT22;6974;53.606;9.872;2022-12-07T06:17:07;4.20;99.90
13806;DHT22;6974;53.606;9.872;2022-12-07T06:19:34;4.20;99.90
13806;DHT22;6974;53.606;9.872;2022-12-07T06:22:01;4.20;99.90
13806;DHT22;6974;53.606;9.872;2022-12-07T06:24:30;4.20;99.90
13806;DHT22;6974;53.606;9.872;2022-12-07T06:26:57;4.20;99.90
13806;DHT22;6974;53.606;9.872;2022-12-07T06:29:24;4.20;99.90
13806;DHT22;6974;53.606;9.872;2022-12-07T06:31:53;4.20;99.90
13806;DHT22;6974;53.606;9.872;2022-12-07T06:34:21;4.20;99.90
13806;DHT22;6974;53.606;9.872;2022-12-07T06:36:49;4.20;99.90
13806;DHT22;6974;53.606;9.872;2022-12-07T06:39:19;4.20;99.90
13806;DHT22;6974;53.606;9.872;2022-12-07T06:41:46;4.20;99.90
13806;DHT22;6974;53.606;9.872;2022-12-07T06:44:13;4.30;99.90
13806;DHT22;6974;53.606;9.872;2022-12-07T06:46:40;4.30;99.90
13806;DHT22;6974;53.606;9.872;2022-12-07T06:49:08;4.30;99.90
13806;DHT22;6974;53.606;9.872;2022-12-07T06:51:35;4.30;99.90
13806;DHT22;6974;53.606;9.872;2022-12-07T06:54:06;4.40;99.90
13806;DHT22;6974;53.606;9.872;2022-12-07T06:56:33;4.40;99.90
13806;DHT22;6974;53.606;9.872;2022-12-07T06:59:00;4.40;99.90
13806;DHT22;6974;53.606;9.872;2022-12-07T07:01:27;4.40;99.90
13806;DHT22;6974;53.606;9.872;2022-12-07T07:03:53;4.40;99.90
13806;DHT22;6974;53.606;9.872;2022-12-07T07:06:22;4.40;99.90
13806;DHT22;6974;53.606;9.872;2022-12-07T07:08:50;4.50;99.90
13806;DHT22;6974;53.606;9.872;2022-12-07T07:11:16;4.50;99.90
13806;DHT22;6974;53.606;9.872;2022-12-07T07:13:44;4.40;99.90
13806;DHT22;6974;53.606;9.872;2022-12-07T07:16:11;4.40;99.90
13806;DHT22;6974;53.606;9.872;2022-12-07T07:18:38;4.40;99.90
13806;DHT22;6974;53.606;9.872;2022-12-07T07:21:05;4.40;99.90
13806;DHT22;6974;53.606;9.872;2022-12-07T07:23:33;4.50;99.90
13806;DHT22;6974;53.606;9.872;2022-12-07T07:26:00;4.50;99.90
13806;DHT22;6974;53.606;9.872;2022-12-07T07:28:27;4.40;99.90
13806;DHT22;6974;53.606;9.872;2022-12-07T07:30:54;4.40;99.90
13806;DHT22;6974;53.606;9.872;2022-12-07T07:33:21;4.40;99.90
13806;DHT22;6974;53.606;9.872;2022-12-07T07:35:48;4.40;99.90
13806;DHT22;6974;53.606;9.872;2022-12-07T07:38:15;4.40;99.90
13806;DHT22;6974;53.606;9.872;2022-12-07T07:40:43;4.40;99.90
13806;DHT22;6974;53.606;9.872;2022-12-07T07:43:10;4.50;99.90
13806;DHT22;6974;53.606;9.872;2022-12-07T07:45:37;4.50;99.90
13806;DHT22;6974;53.606;9.872;2022-12-07T07:48:04;4.50;99.90
13806;DHT22;6974;53.606;9.872;2022-12-07T07:50:31;4.50;99.90
13806;DHT22;6974;53.606;9.872;2022-12-07T07:52:58;4.50;99.90
13806;DHT22;6974;53.606;9.872;2022-12-07T07:55:25;4.60;99.90
13806;DHT22;6974;53.606;9.872;2022-12-07T07:57:54;4.50;99.90
13806;DHT22;6974;53.606;9.872;2022-12-07T08:00:21;4.50;99.90
13806;DHT22;6974;53.606;9.872;2022-12-07T08:02:48;4.50;99.90
13806;DHT22;6974;53.606;9.872;2022-12-07T08:05:16;4.50;99.90
13806;DHT22;6974;53.606;9.872;2022-12-07T08:07:43;4.50;99.90
13806;DHT22;6974;53.606;9.872;2022-12-07T08:10:11;4.50;99.90
13806;DHT22;6974;53.606;9.872;2022-12-07T08:12:39;4.50;99.90
13806;DHT22;6974;53.606;9.872;2022-12-07T08:15:30;4.50;99.90
13806;DHT22;6974;53.606;9.872;2022-12-07T08:17:57;4.50;99.90
13806;DHT22;6974;53.606;9.872;2022-12-07T08:20:24;4.50;99.90
13806;DHT22;6974;53.606;9.872;2022-12-07T08:22:51;4.50;99.90
13806;DHT22;6974;53.606;9.872;2022-12-07T08:25:19;4.50;99.90
13806;DHT22;6974;53.606;9.872;2022-12-07T08:27:46;4.60;99.90
13806;DHT22;6974;53.606;9.872;2022-12-07T08:30:13;4.60;99.90
13806;DHT22;6974;53.606;9.872;2022-12-07T08:32:42;4.60;99.90
13806;DHT22;6974;53.606;9.872;2022-12-07T08:35:10;4.60;99.90
13806;DHT22;6974;53.606;9.872;2022-12-07T08:37:37;4.70;99.90
13806;DHT22;6974;53.606;9.872;2022-12-07T08:40:05;4.70;99.90
13806;DHT22;6974;53.606;9.872;2022-12-07T08:42:33;4.70;99.90
13806;DHT22;6974;53.606;9.872;2022-12-07T08:45:07;4.70;99.90
13806;DHT22;6974;53.606;9.872;2022-12-07T08:47:35;4.80;99.90
13806;DHT22;6974;53.606;9.872;2022-12-07T08:50:05;4.80;99.90
13806;DHT22;6974;53.606;9.872;2022-12-07T08:52:34;4.70;99.90
13806;DHT22;6974;53.606;9.872;2022-12-07T08:55:01;4.80;99.90
13806;DHT22;6974;53.606;9.872;2022-12-07T08:57:29;4.80;99.90
13806;DHT22;6974;53.606;9.872;2022-12-07T08:59:57;4.80;99.90
13806;DHT22;6974;53.606;9.872;2022-12-07T09:02:24;4.80;99.90
13806;DHT22;6974;53.606;9.872;2022-12-07T09:04:51;4.90;99.90
13806;DHT22;6974;53.606;9.872;2022-12-07T09:07:19;4.90;99.90
13806;DHT22;6974;53.606;9.872;2022-12-07T09:09:46;4.90;99.90
13806;DHT22;6974;53.606;9.872;2022-12-07T09:12:13;4.90;99.90
13806;DHT22;6974;53.606;9.872;2022-12-07T09:14:40;5.00;99.90
13806;DHT22;6974;53.606;9.872;2022-12-07T09:17:08;5.00;99.90
13806;DHT22;6974;53.606;9.872;2022-12-07T09:19:35;5.00;99.90
13806;DHT22;6974;53.606;9.872;2022-12-07T09:22:03;5.00;99.90
13806;DHT22;6974;53.606;9.872;2022-12-07T09:24:32;5.10;99.90
13806;DHT22;6974;53.606;9.872;2022-12-07T09:26:59;5.10;99.90
13806;DHT22;6974;53.606;9.872;2022-12-07T09:29:26;5.10;99.90
13806;DHT22;6974;53.606;9.872;2022-12-07T09:31:53;5.10;99.90
13806;DHT22;6974;53.606;9.872;2022-12-07T09:34:20;5.10;99.90
13806;DHT22;6974;53.606;9.872;2022-12-07T09:36:47;5.10;99.90
13806;DHT22;6974;53.606;9.872;2022-12-07T09:39:14;5.10;99.90
13806;DHT22;6974;53.606;9.872;2022-12-07T09:41:44;5.20;99.90
13806;DHT22;6974;53.606;9.872;2022-12-07T09:44:13;5.10;99.90
13806;DHT22;6974;53.606;9.872;2022-12-07T09:46:42;5.20;99.90
13806;DHT22;6974;53.606;9.872;2022-12-07T09:49:12;5.20;99.90
13806;DHT22;6974;53.606;9.872;2022-12-07T09:51:41;5.20;99.90
13806;DHT22;6974;53.606;9.872;2022-12-07T09:54:12;5.20;99.90
13806;DHT22;6974;53.606;9.872;2022-12-07T09:56:39;5.20;99.90
13806;DHT22;6974;53.606;9.872;2022-12-07T09:59:15;5.20;99.90
13806;DHT22;6974;53.606;9.872;2022-12-07T10:01:43;5.20;99.90
13806;DHT22;6974;53.606;9.872;2022-12-07T10:04:14;5.30;99.90
13806;DHT22;6974;53.606;9.872;2022-12-07T10:06:42;5.30;99.90
13806;DHT22;6974;53.606;9.872;2022-12-07T10:09:11;5.30;99.90
13806;DHT22;6974;53.606;9.872;2022-12-07T10:12:04;5.30;99.90
13806;DHT22;6974;53.606;9.872;2022-12-07T10:14:34;5.40;99.90
13806;DHT22;6974;53.606;9.872;2022-12-07T10:17:02;5.30;99.90
13806;DHT22;6974;53.606;9.872;2022-12-07T10:19:30;5.30;99.90
13806;DHT22;6974;53.606;9.872;2022-12-07T10:22:04;5.40;99.90
13806;DHT22;6974;53.606;9.872;2022-12-07T10:24:31;5.40;99.90
13806;DHT22;6974;53.606;9.872;2022-12-07T10:26:59;5.40;99.90
13806;DHT22;6974;53.606;9.872;2022-12-07T10:29:30;5.50;99.90
13806;DHT22;6974;53.606;9.872;2022-12-07T10:32:00;5.50;99.90
13806;DHT22;6974;53.606;9.872;2022-12-07T10:34:29;5.50;99.90
13806;DHT22;6974;53.606;9.872;2022-12-07T10:37:17;5.50;99.90
13806;DHT22;6974;53.606;9.872;2022-12-07T10:39:47;5.50;99.90
13806;DHT22;6974;53.606;9.872;2022-12-07T10:42:18;5.50;99.90
13806;DHT22;6974;53.606;9.872;2022-12-07T10:44:46;5.50;99.90
13806;DHT22;6974;53.606;9.872;2022-12-07T10:47:25;5.60;99.90
13806;DHT22;6974;53.606;9.872;2022-12-07T10:50:18;5.50;99.90
13806;DHT22;6974;53.606;9.872;2022-12-07T10:56:01;5.60;99.90
13806;DHT22;6974;53.606;9.872;2022-12-07T10:58:39;5.70;99.90
13806;DHT22;6974;53.606;9.872;2022-12-07T11:01:18;5.70;99.90
13806;DHT22;6974;53.606;9.872;2022-12-07T11:04:03;5.80;99.90
13806;DHT22;6974;53.606;9.872;2022-12-07T11:06:37;5.80;99.90
13806;DHT22;6974;53.606;9.872;2022-12-07T11:12:11;5.90;99.90
13806;DHT22;6974;53.606;9.872;2022-12-07T11:14:46;6.00;99.90
13806;DHT22;6974;53.606;9.872;2022-12-07T11:17:22;6.00;99.90
13806;DHT22;6974;53.606;9.872;2022-12-07T11:20:01;5.90;99.90
13806;DHT22;6974;53.606;9.872;2022-12-07T11:22:36;5.90;99.90
13806;DHT22;6974;53.606;9.872;2022-12-07T11:25:17;5.90;99.90
13806;DHT22;6974;53.606;9.872;2022-12-07T11:27:49;5.90;99.90
13806;DHT22;6974;53.606;9.872;2022-12-07T11:30:20;5.90;99.90
13806;DHT22;6974;53.606;9.872;2022-12-07T11:33:14;6.00;99.90
13806;DHT22;6974;53.606;9.872;2022-12-07T11:35:50;6.00;99.90
13806;DHT22;6974;53.606;9.872;2022-12-07T11:38:21;6.00;99.90
13806;DHT22;6974;53.606;9.872;2022-12-07T11:40:53;6.00;99.90
13806;DHT22;6974;53.606;9.872;2022-12-07T11:43:48;6.00;99.90
13806;DHT22;6974;53.606;9.872;2022-12-07T11:46:17;6.00;99.90
13806;DHT22;6974;53.606;9.872;2022-12-07T11:48:47;6.00;99.90
13806;DHT22;6974;53.606;9.872;2022-12-07T11:51:21;6.00;99.90
13806;DHT22;6974;53.606;9.872;2022-12-07T11:53:52;6.00;99.90
13806;DHT22;6974;53.606;9.872;2022-12-07T11:56:23;6.00;99.90
13806;DHT22;6974;53.606;9.872;2022-12-07T11:58:56;5.90;99.90
13806;DHT22;6974;53.606;9.872;2022-12-07T12:01:37;6.00;99.90
13806;DHT22;6974;53.606;9.872;2022-12-07T12:04:17;6.10;99.90
13806;DHT22;6974;53.606;9.872;2022-12-07T12:06:47;6.10;99.90
13806;DHT22;6974;53.606;9.872;2022-12-07T12:09:17;6.10;99.90
13806;DHT22;6974;53.606;9.872;2022-12-07T12:12:02;6.10;99.90
13806;DHT22;6974;53.606;9.872;2022-12-07T12:14:44;6.10;99.90
13806;DHT22;6974;53.606;9.872;2022-12-07T12:17:31;6.10;99.90
13806;DHT22;6974;53.606;9.872;2022-12-07T12:20:04;6.20;99.90
13806;DHT22;6974;53.606;9.872;2022-12-07T12:22:38;6.10;99.90
13806;DHT22;6974;53.606;9.872;2022-12-07T12:25:12;6.20;99.90
13806;DHT22;6974;53.606;9.872;2022-12-07T12:27:46;6.10;99.90
13806;DHT22;6974;53.606;9.872;2022-12-07T12:30:27;6.20;99.90
13806;DHT22;6974;53.606;9.872;2022-12-07T12:33:05;6.20;99.90
13806;DHT22;6974;53.606;9.872;2022-12-07T12:35:34;6.20;99.90
13806;DHT22;6974;53.606;9.872;2022-12-07T12:50:31;6.30;99.90
13806;DHT22;6974;53.606;9.872;2022-12-07T12:53:14;6.30;99.90
13806;DHT22;6974;53.606;9.872;2022-12-07T12:58:42;6.20;99.90
13806;DHT22;6974;53.606;9.872;2022-12-07T13:01:44;6.20;99.90
13806;DHT22;6974;53.606;9.872;2022-12-07T13:04:39;6.20;99.90
13806;DHT22;6974;53.606;9.872;2022-12-07T13:07:50;6.10;99.90
13806;DHT22;6974;53.606;9.872;2022-12-07T13:10:33;6.10;99.90
13806;DHT22;6974;53.606;9.872;2022-12-07T13:13:03;6.00;99.90
13806;DHT22;6974;53.606;9.872;2022-12-07T13:15:35;6.00;99.90
13806;DHT22;6974;53.606;9.872;2022-12-07T13:18:21;6.00;99.90
13806;DHT22;6974;53.606;9.872;2022-12-07T13:20:51;6.00;99.90
13806;DHT22;6974;53.606;9.872;2022-12-07T13:23:29;5.90;99.90
13806;DHT22;6974;53.606;9.872;2022-12-07T13:26:16;5.90;99.90
13806;DHT22;6974;53.606;9.872;2022-12-07T13:28:45;5.90;99.90
13806;DHT22;6974;53.606;9.872;2022-12-07T13:31:23;5.80;99.90
13806;DHT22;6974;53.606;9.872;2022-12-07T13:33:52;5.80;99.90
13806;DHT22;6974;53.606;9.872;2022-12-07T13:36:22;5.80;99.90
13806;DHT22;6974;53.606;9.872;2022-12-07T13:38:52;5.90;99.90
13806;DHT22;6974;53.606;9.872;2022-12-07T13:41:20;5.90;99.90
13806;DHT22;6974;53.606;9.872;2022-12-07T13:44:00;5.90;99.90
13806;DHT22;6974;53.606;9.872;2022-12-07T13:46:40;5.90;99.90
13806;DHT22;6974;53.606;9.872;2022-12-07T13:49:17;5.90;99.90
13806;DHT22;6974;53.606;9.872;2022-12-07T13:51:44;5.90;99.90
13806;DHT22;6974;53.606;9.872;2022-12-07T13:54:12;6.00;99.90
13806;DHT22;6974;53.606;9.872;2022-12-07T13:56:41;5.90;99.90
13806;DHT22;6974;53.606;9.872;2022-12-07T13:59:13;5.90;99.90
13806;DHT22;6974;53.606;9.872;2022-12-07T14:01:44;5.90;99.90
13806;DHT22;6974;53.606;9.872;2022-12-07T14:04:33;5.90;99.90
13806;DHT22;6974;53.606;9.872;2022-12-07T14:07:15;5.90;99.90
13806;DHT22;6974;53.606;9.872;2022-12-07T14:09:56;5.90;99.90
13806;DHT22;6974;53.606;9.872;2022-12-07T14:12:24;5.90;99.90
13806;DHT22;6974;53.606;9.872;2022-12-07T14:14:52;5.90;99.90
13806;DHT22;6974;53.606;9.872;2022-12-07T14:17:23;5.90;99.90
13806;DHT22;6974;53.606;9.872;2022-12-07T14:19:52;5.90;99.90
13806;DHT22;6974;53.606;9.872;2022-12-07T14:22:29;5.80;99.90
13806;DHT22;6974;53.606;9.872;2022-12-07T14:25:22;5.80;99.90
13806;DHT22;6974;53.606;9.872;2022-12-07T14:27:52;5.80;99.90
13806;DHT22;6974;53.606;9.872;2022-12-07T14:30:22;5.80;99.90
13806;DHT22;6974;53.606;9.872;2022-12-07T14:32:53;5.80;99.90
13806;DHT22;6974;53.606;9.872;2022-12-07T14:35:20;5.70;99.90
13806;DHT22;6974;53.606;9.872;2022-12-07T14:37:48;5.70;99.90
13806;DHT22;6974;53.606;9.872;2022-12-07T14:40:17;5.70;99.90
13806;DHT22;6974;53.606;9.872;2022-12-07T14:42:46;5.70;99.90
13806;DHT22;6974;53.606;9.872;2022-12-07T14:45:15;5.70;99.90
13806;DHT22;6974;53.606;9.872;2022-12-07T14:47:43;5.70;99.90
13806;DHT22;6974;53.606;9.872;2022-12-07T14:50:14;5.60;99.90
13806;DHT22;6974;53.606;9.872;2022-12-07T14:52:43;5.60;99.90
13806;DHT22;6974;53.606;9.872;2022-12-07T14:55:15;5.60;99.90
13806;DHT22;6974;53.606;9.872;2022-12-07T14:57:43;5.60;99.90
13806;DHT22;6974;53.606;9.872;2022-12-07T15:00:14;5.50;99.90
13806;DHT22;6974;53.606;9.872;2022-12-07T15:02:42;5.50;99.90
13806;DHT22;6974;53.606;9.872;2022-12-07T15:05:09;5.40;99.90
13806;DHT22;6974;53.606;9.872;2022-12-07T15:07:38;5.50;99.90
13806;DHT22;6974;53.606;9.872;2022-12-07T15:10:06;5.50;99.90
13806;DHT22;6974;53.606;9.872;2022-12-07T15:12:33;5.40;99.90
13806;DHT22;6974;53.606;9.872;2022-12-07T15:15:00;5.40;99.90
13806;DHT22;6974;53.606;9.872;2022-12-07T15:17:27;5.40;99.90
13806;DHT22;6974;53.606;9.872;2022-12-07T15:19:54;5.40;99.90
13806;DHT22;6974;53.606;9.872;2022-12-07T15:22:21;5.40;99.90
13806;DHT22;6974;53.606;9.872;2022-12-07T15:24:49;5.40;99.90
13806;DHT22;6974;53.606;9.872;2022-12-07T15:27:16;5.30;99.90
13806;DHT22;6974;53.606;9.872;2022-12-07T15:29:43;5.20;99.90
13806;DHT22;6974;53.606;9.872;2022-12-07T15:32:10;5.20;99.90
13806;DHT22;6974;53.606;9.872;2022-12-07T15:34:37;5.20;99.90
13806;DHT22;6974;53.606;9.872;2022-12-07T15:37:04;5.10;99.90
13806;DHT22;6974;53.606;9.872;2022-12-07T15:39:31;5.00;99.90
13806;DHT22;6974;53.606;9.872;2022-12-07T15:42:00;5.00;99.90
13806;DHT22;6974;53.606;9.872;2022-12-07T15:44:27;5.00;99.90
13806;DHT22;6974;53.606;9.872;2022-12-07T15:47:12;5.00;99.90
13806;DHT22;6974;53.606;9.872;2022-12-07T15:49:38;4.90;99.90
13806;DHT22;6974;53.606;9.872;2022-12-07T15:52:05;4.80;99.90
13806;DHT22;6974;53.606;9.872;2022-12-07T15:54:32;4.80;99.90
13806;DHT22;6974;53.606;9.872;2022-12-07T15:57:01;4.80;99.90
13806;DHT22;6974;53.606;9.872;2022-12-07T15:59:28;4.80;99.90
13806;DHT22;6974;53.606;9.872;2022-12-07T16:01:55;4.80;99.90
13806;DHT22;6974;53.606;9.872;2022-12-07T16:04:22;4.80;99.90
13806;DHT22;6974;53.606;9.872;2022-12-07T16:06:49;4.70;99.90
13806;DHT22;6974;53.606;9.872;2022-12-07T16:09:16;4.70;99.90
13806;DHT22;6974;53.606;9.872;2022-12-07T16:11:43;4.70;99.90
13806;DHT22;6974;53.606;9.872;2022-12-07T16:14:11;4.60;99.90
13806;DHT22;6974;53.606;9.872;2022-12-07T16:16:38;4.60;99.90
13806;DHT22;6974;53.606;9.872;2022-12-07T16:19:07;4.60;99.90
13806;DHT22;6974;53.606;9.872;2022-12-07T16:21:34;4.50;99.90
13806;DHT22;6974;53.606;9.872;2022-12-07T16:24:01;4.50;99.90
13806;DHT22;6974;53.606;9.872;2022-12-07T16:26:28;4.50;99.90
13806;DHT22;6974;53.606;9.872;2022-12-07T16:28:55;4.50;99.90
13806;DHT22;6974;53.606;9.872;2022-12-07T16:31:25;4.50;99.90
13806;DHT22;6974;53.606;9.872;2022-12-07T16:33:55;4.50;99.90
13806;DHT22;6974;53.606;9.872;2022-12-07T16:36:23;4.40;99.90
13806;DHT22;6974;53.606;9.872;2022-12-07T16:38:52;4.40;99.90
13806;DHT22;6974;53.606;9.872;2022-12-07T16:41:19;4.40;99.90
13806;DHT22;6974;53.606;9.872;2022-12-07T16:43:46;4.40;99.90